createdAt,value
2022-08-11T00:02:14.972Z,101997.20
2022-08-11T00:04:45.172Z,101994.20
2022-08-11T00:07:15.198Z,101997.00
2022-08-11T00:09:44.562Z,102002.00
2022-08-11T00:12:17.173Z,101997.00
2022-08-11T00:14:48.793Z,101985.60
2022-08-11T00:17:17.795Z,101985.00
2022-08-11T00:20:12.423Z,101979.00
2022-08-11T00:22:44.862Z,101978.40
2022-08-11T00:25:19.398Z,101978.60
2022-08-11T00:27:49.139Z,101975.80
2022-08-11T00:30:17.850Z,101975.60
2022-08-11T00:32:59.077Z,101974.60
2022-08-11T00:35:55.089Z,101975.60
2022-08-11T00:38:28.850Z,101971.20
2022-08-11T00:41:18.694Z,101968.20
2022-08-11T00:43:59.792Z,101964.60
2022-08-11T00:46:27.555Z,101966.20
2022-08-11T00:49:18.221Z,101974.40
2022-08-11T00:52:06.439Z,101972.60
2022-08-11T00:55:31.241Z,101965.60
2022-08-11T00:58:40.510Z,101972.20
2022-08-11T01:01:21.142Z,101973.60
2022-08-11T01:04:37.416Z,101973.20
2022-08-11T01:08:00.446Z,101975.80
2022-08-11T01:11:02.955Z,101973.60
2022-08-11T01:14:07.207Z,101980.20
2022-08-11T01:17:15.531Z,101972.60
2022-08-11T01:20:44.957Z,101977.00
2022-08-11T01:23:48.091Z,101983.00
2022-08-11T01:26:44.145Z,101981.80
2022-08-11T01:29:52.224Z,101982.20
2022-08-11T01:32:44.251Z,101991.80
2022-08-11T01:35:48.398Z,101988.40
2022-08-11T01:38:56.880Z,101986.40
2022-08-11T01:42:31.397Z,101984.40
2022-08-11T01:45:51.227Z,101984.20
2022-08-11T01:50:08.886Z,101980.80
2022-08-11T01:52:40.918Z,101984.20
2022-08-11T01:55:49.120Z,101976.60
2022-08-11T01:58:59.544Z,101977.60
2022-08-11T02:01:36.489Z,101976.80
2022-08-11T02:04:43.463Z,101979.80
2022-08-11T02:07:49.772Z,101979.00
2022-08-11T02:11:04.698Z,101984.60
2022-08-11T02:13:40.556Z,101981.20
2022-08-11T02:16:28.401Z,101979.80
2022-08-11T02:19:39.728Z,101981.60
2022-08-11T02:23:08.151Z,101984.80
2022-08-11T02:25:42.875Z,101991.40
2022-08-11T02:28:16.763Z,101991.60
2022-08-11T02:32:24.113Z,101992.00
2022-08-11T02:34:45.327Z,101987.00
2022-08-11T02:37:46.101Z,101982.20
2022-08-11T02:40:43.052Z,101980.80
2022-08-11T02:43:50.924Z,101983.40
2022-08-11T02:46:29.051Z,101988.80
2022-08-11T02:49:30.219Z,101991.40
2022-08-11T02:52:15.789Z,101992.60
2022-08-11T02:55:44.485Z,101991.40
2022-08-11T02:58:13.270Z,101987.40
2022-08-11T03:00:57.337Z,101989.00
2022-08-11T03:03:39.463Z,101991.20
2022-08-11T03:06:36.102Z,101991.80
2022-08-11T03:09:22.585Z,101989.00
2022-08-11T03:12:32.847Z,101992.80
2022-08-11T03:16:06.697Z,102000.20
2022-08-11T03:18:58.942Z,101993.80
2022-08-11T03:22:03.269Z,101994.60
2022-08-11T03:24:46.661Z,101997.60
2022-08-11T03:27:42.204Z,101997.00
2022-08-11T03:30:35.091Z,101996.60
2022-08-11T03:34:06.647Z,101999.00
2022-08-11T03:37:37.761Z,101999.20
2022-08-11T03:40:54.661Z,101995.60
2022-08-11T03:43:58.066Z,101997.60
2022-08-11T03:46:45.396Z,101999.00
2022-08-11T03:50:01.498Z,102002.20
2022-08-11T03:53:09.843Z,101999.00
2022-08-11T03:56:13.201Z,101990.00
2022-08-11T03:59:07.897Z,101993.60
2022-08-11T04:02:15.436Z,101989.60
2022-08-11T04:05:40.846Z,101991.00
2022-08-11T04:08:55.899Z,101990.00
2022-08-11T04:12:14.864Z,101995.20
2022-08-11T04:15:41.379Z,101992.60
2022-08-11T04:18:43.041Z,101994.80
2022-08-11T04:21:22.715Z,101995.40
2022-08-11T04:24:36.214Z,102000.20
2022-08-11T04:27:22.732Z,101996.40
2022-08-11T04:30:17.539Z,101989.80
2022-08-11T04:33:16.177Z,101992.20
2022-08-11T04:36:56.578Z,101983.40
2022-08-11T04:39:58.337Z,101986.00
2022-08-11T04:43:21.182Z,101986.80
2022-08-11T04:46:23.319Z,101983.20
2022-08-11T04:50:08.104Z,101985.00
2022-08-11T04:53:26.136Z,101980.60
2022-08-11T04:56:28.142Z,101977.60
2022-08-11T04:59:47.525Z,101975.60
2022-08-11T05:03:15.615Z,101974.60
2022-08-11T05:06:27.373Z,101974.60
2022-08-11T05:09:34.834Z,101961.80
2022-08-11T05:12:32.772Z,101959.00
2022-08-11T05:15:22.229Z,101956.80
2022-08-11T05:18:21.597Z,101955.40
2022-08-11T05:21:14.143Z,101947.40
2022-08-11T05:24:13.004Z,101949.20
2022-08-11T05:27:11.319Z,101946.80
2022-08-11T05:30:23.576Z,101945.20
2022-08-11T05:33:29.405Z,101941.00
2022-08-11T05:36:31.360Z,101942.00
2022-08-11T05:39:36.708Z,101939.00
2022-08-11T05:42:30.185Z,101944.00
2022-08-11T05:45:57.377Z,101944.80
2022-08-11T05:48:55.847Z,101942.00
2022-08-11T05:52:05.738Z,101937.80
2022-08-11T05:55:01.879Z,101940.60
2022-08-11T05:57:50.523Z,101933.60
2022-08-11T06:00:20.864Z,101937.40
2022-08-11T06:03:01.058Z,101943.20
2022-08-11T06:05:44.049Z,101945.80
2022-08-11T06:08:15.207Z,101946.00
2022-08-11T06:10:45.597Z,101951.80
2022-08-11T06:13:18.369Z,101953.00
2022-08-11T06:15:52.240Z,101960.80
2022-08-11T06:18:24.303Z,101956.60
2022-08-11T06:20:58.421Z,101958.20
2022-08-11T06:23:36.461Z,101961.20
2022-08-11T06:26:11.079Z,101959.80
2022-08-11T06:28:48.073Z,101956.60
2022-08-11T06:31:24.160Z,101958.40
2022-08-11T06:34:08.020Z,101956.80
2022-08-11T06:36:58.187Z,101960.60
2022-08-11T06:40:11.864Z,101959.80
2022-08-11T06:43:02.439Z,101953.20
2022-08-11T06:45:48.941Z,101957.00
2022-08-11T06:48:23.560Z,101961.60
2022-08-11T06:51:22.527Z,101966.40
2022-08-11T06:54:04.627Z,101964.60
2022-08-11T06:57:28.390Z,101966.00
2022-08-11T07:00:12.849Z,101967.60
2022-08-11T07:02:58.610Z,101969.40
2022-08-11T07:06:04.402Z,101969.00
2022-08-11T07:09:53.478Z,101965.80
2022-08-11T07:13:00.145Z,101967.20
2022-08-11T07:16:12.694Z,101963.20
2022-08-11T07:18:56.903Z,101969.00
2022-08-11T07:22:02.631Z,101963.00
2022-08-11T07:25:41.166Z,101956.40
2022-08-11T07:28:41.001Z,101959.00
2022-08-11T07:31:31.766Z,101959.40
2022-08-11T07:34:17.989Z,101964.40
2022-08-11T07:36:58.542Z,101967.60
2022-08-11T07:39:34.681Z,101967.20
2022-08-11T07:42:13.957Z,101967.20
2022-08-11T07:45:03.484Z,101968.00
2022-08-11T07:47:56.170Z,101968.40
2022-08-11T07:50:44.306Z,101970.20
2022-08-11T07:53:15.104Z,101966.80
2022-08-11T07:55:50.782Z,101965.80
2022-08-11T07:58:52.389Z,101962.80
2022-08-11T08:01:44.926Z,101969.00
2022-08-11T08:04:35.541Z,101970.00
2022-08-11T08:07:24.498Z,101971.60
2022-08-11T08:10:19.459Z,101973.80
2022-08-11T08:13:15.383Z,101968.20
2022-08-11T08:16:07.020Z,101972.00
2022-08-11T08:18:37.970Z,101971.80
2022-08-11T08:21:14.834Z,101972.60
2022-08-11T08:23:46.995Z,101976.80
2022-08-11T08:26:38.043Z,101977.80
2022-08-11T08:29:27.034Z,101980.60
2022-08-11T08:31:57.952Z,101980.40
2022-08-11T08:34:27.052Z,101979.60
2022-08-11T08:37:00.449Z,101971.40
2022-08-11T08:39:29.240Z,101970.60
2022-08-11T08:42:00.270Z,101970.20
2022-08-11T08:44:39.222Z,101970.20
2022-08-11T08:47:42.159Z,101966.00
2022-08-11T08:50:27.510Z,101960.40
2022-08-11T08:53:07.440Z,101961.60
2022-08-11T08:55:35.700Z,101960.40
2022-08-11T08:58:04.141Z,101964.00
2022-08-11T09:00:46.531Z,101957.20
2022-08-11T09:03:40.669Z,101963.00
2022-08-11T09:06:02.806Z,101954.20
2022-08-11T09:08:33.625Z,101945.40
2022-08-11T09:11:23.307Z,101945.20
2022-08-11T09:14:11.617Z,101945.60
2022-08-11T09:16:44.794Z,101941.00
2022-08-11T09:19:18.548Z,101941.40
2022-08-11T09:22:11.719Z,101938.80
2022-08-11T09:24:59.750Z,101945.20
2022-08-11T09:27:28.482Z,101941.60
2022-08-11T09:29:56.866Z,101937.80
2022-08-11T09:32:29.086Z,101939.40
2022-08-11T09:34:58.671Z,101937.20
2022-08-11T09:37:55.779Z,101933.00
2022-08-11T09:40:30.789Z,101934.20
2022-08-11T09:43:22.513Z,101913.20
2022-08-11T09:45:54.116Z,101912.20
2022-08-11T09:48:26.361Z,101915.00
2022-08-11T09:51:01.107Z,101915.60
2022-08-11T09:53:40.789Z,101912.20
2022-08-11T09:56:36.049Z,101912.40
2022-08-11T09:59:06.683Z,101911.00
2022-08-11T10:01:42.463Z,101909.80
2022-08-11T10:04:16.187Z,101905.20
2022-08-11T10:07:04.191Z,101907.20
2022-08-11T10:10:01.293Z,101901.40
2022-08-11T10:12:46.458Z,101900.20
2022-08-11T10:15:35.445Z,101900.00
2022-08-11T10:18:41.775Z,101900.60
2022-08-11T10:21:36.282Z,101894.60
2022-08-11T10:24:25.651Z,101898.40
2022-08-11T10:27:00.013Z,101894.80
2022-08-11T10:29:54.969Z,101892.40
2022-08-11T10:32:57.851Z,101895.60
2022-08-11T10:35:32.207Z,101887.40
2022-08-11T10:38:08.396Z,101890.00
2022-08-11T10:40:40.610Z,101888.00
2022-08-11T10:43:14.299Z,101890.40
2022-08-11T10:46:29.733Z,101889.80
2022-08-11T10:49:00.114Z,101883.60
2022-08-11T10:51:50.885Z,101886.20
2022-08-11T10:54:41.860Z,101884.20
2022-08-11T10:57:30.134Z,101882.20
2022-08-11T11:00:00.707Z,101880.40
2022-08-11T11:02:30.278Z,101884.80
2022-08-11T11:05:25.232Z,101885.20
2022-08-11T11:08:04.253Z,101883.60
2022-08-11T11:10:33.197Z,101873.40
2022-08-11T11:13:20.667Z,101881.40
2022-08-11T11:16:07.806Z,101885.60
2022-08-11T11:18:38.285Z,101884.40
2022-08-11T11:21:19.521Z,101888.00
2022-08-11T11:24:14.047Z,101884.20
2022-08-11T11:27:01.124Z,101885.40
2022-08-11T11:29:57.708Z,101886.20
2022-08-11T11:32:49.817Z,101887.60
2022-08-11T11:35:48.664Z,101882.40
2022-08-11T11:38:18.341Z,101884.60
2022-08-11T11:41:07.511Z,101884.40
2022-08-11T11:43:37.375Z,101886.80
2022-08-11T11:46:07.009Z,101885.40
2022-08-11T11:48:37.460Z,101877.60
2022-08-11T11:51:05.816Z,101881.60
2022-08-11T11:53:35.313Z,101882.20
2022-08-11T11:56:03.712Z,101880.20
2022-08-11T11:58:50.738Z,101873.60
2022-08-11T12:01:22.490Z,101874.20
2022-08-11T12:03:53.510Z,101872.60
2022-08-11T12:06:27.793Z,101861.40
2022-08-11T12:09:01.230Z,101864.00
2022-08-11T12:11:50.105Z,101866.40
2022-08-11T12:14:21.470Z,101878.60
2022-08-11T12:16:49.985Z,101870.00
2022-08-11T12:19:23.060Z,101871.80
2022-08-11T12:22:13.872Z,101871.20
2022-08-11T12:25:01.536Z,101882.40
2022-08-11T12:27:31.530Z,101875.40
2022-08-11T12:30:06.445Z,101879.40
2022-08-11T12:32:39.004Z,101875.80
2022-08-11T12:35:08.821Z,101874.20
2022-08-11T12:37:49.638Z,101867.20
2022-08-11T12:41:12.007Z,101869.20
2022-08-11T12:43:56.450Z,101854.60
2022-08-11T12:46:38.003Z,101860.60
2022-08-11T12:49:45.200Z,101856.60
2022-08-11T12:52:24.103Z,101854.40
2022-08-11T12:55:00.098Z,101861.80
2022-08-11T12:57:54.694Z,101861.00
2022-08-11T13:00:43.523Z,101856.60
2022-08-11T13:03:33.092Z,101849.00
2022-08-11T13:06:06.498Z,101849.20
2022-08-11T13:08:39.357Z,101846.00
2022-08-11T13:11:56.554Z,101840.60
2022-08-11T13:14:17.325Z,101839.20
2022-08-11T13:17:05.832Z,101837.40
2022-08-11T13:19:35.286Z,101834.80
2022-08-11T13:22:07.614Z,101839.80
2022-08-11T13:24:36.801Z,101834.40
2022-08-11T13:27:05.329Z,101837.60
2022-08-11T13:29:38.236Z,101829.20
2022-08-11T13:32:06.753Z,101827.20
2022-08-11T13:34:41.740Z,101828.20
2022-08-11T13:37:14.644Z,101823.20
2022-08-11T13:39:48.391Z,101827.20
2022-08-11T13:42:20.727Z,101817.20
2022-08-11T13:44:49.300Z,101816.60
2022-08-11T13:47:17.882Z,101815.80
2022-08-11T13:49:45.984Z,101812.00
2022-08-11T13:52:16.792Z,101807.60
2022-08-11T13:54:48.711Z,101804.40
2022-08-11T13:58:08.980Z,101802.20
2022-08-11T14:00:23.634Z,101805.20
2022-08-11T14:02:58.288Z,101800.00
2022-08-11T14:05:38.066Z,101809.20
2022-08-11T14:08:36.969Z,101799.00
2022-08-11T14:12:23.205Z,101797.60
2022-08-11T14:14:23.392Z,101797.00
2022-08-11T14:16:57.129Z,101794.60
2022-08-11T14:19:28.997Z,101795.20
2022-08-11T14:22:08.317Z,101785.80
2022-08-11T14:24:43.051Z,101792.00
2022-08-11T14:28:30.144Z,101787.40
2022-08-11T14:30:02.396Z,101783.80
2022-08-11T14:32:30.406Z,101778.40
2022-08-11T14:34:59.568Z,101785.20
2022-08-11T14:37:29.294Z,101782.60
2022-08-11T14:40:04.138Z,101786.00
2022-08-11T14:42:50.905Z,101784.80
2022-08-11T14:45:57.562Z,101785.40
2022-08-11T14:48:27.154Z,101786.80
2022-08-11T14:50:56.613Z,101788.60
2022-08-11T14:53:25.118Z,101791.20
2022-08-11T14:56:27.011Z,101791.80
2022-08-11T14:58:55.461Z,101788.80
2022-08-11T15:01:42.582Z,101786.40
2022-08-11T15:04:34.835Z,101787.20
2022-08-11T15:06:59.651Z,101789.80
2022-08-11T15:09:28.269Z,101790.40
2022-08-11T15:12:32.494Z,101791.20
2022-08-11T15:15:16.181Z,101800.20
2022-08-11T15:17:46.368Z,101804.00
2022-08-11T15:20:39.150Z,101799.40
2022-08-11T15:23:27.758Z,101802.20
2022-08-11T15:26:02.081Z,101803.00
2022-08-11T15:28:55.654Z,101809.20
2022-08-11T15:31:49.238Z,101800.60
2022-08-11T15:34:43.036Z,101798.20
2022-08-11T15:37:31.786Z,101795.80
2022-08-11T15:40:41.922Z,101796.20
2022-08-11T15:43:39.889Z,101794.60
2022-08-11T15:46:42.325Z,101795.80
2022-08-11T15:49:24.046Z,101798.80
2022-08-11T15:52:05.553Z,101799.40
2022-08-11T15:54:38.835Z,101800.60
2022-08-11T15:57:07.954Z,101799.60
2022-08-11T15:59:59.038Z,101800.40
2022-08-11T16:02:47.348Z,101806.40
2022-08-11T16:05:45.975Z,101806.00
2022-08-11T16:08:07.216Z,101808.00
2022-08-11T16:10:38.953Z,101799.80
2022-08-11T16:13:13.244Z,101801.80
2022-08-11T16:16:06.447Z,101800.20
2022-08-11T16:19:00.029Z,101800.40
2022-08-11T16:21:36.126Z,101798.60
2022-08-11T16:25:57.739Z,101792.60
2022-08-11T16:27:12.317Z,101782.00
2022-08-11T16:29:47.978Z,101782.60
2022-08-11T16:32:23.434Z,101782.20
2022-08-11T16:35:22.001Z,101773.80
2022-08-11T16:38:12.376Z,101769.40
2022-08-11T16:40:43.424Z,101765.80
2022-08-11T16:43:36.643Z,101769.00
2022-08-11T16:46:26.758Z,101766.40
2022-08-11T16:48:59.133Z,101772.20
2022-08-11T16:51:29.516Z,101772.20
2022-08-11T16:54:05.417Z,101771.40
2022-08-11T16:56:50.568Z,101772.00
2022-08-11T16:59:27.338Z,101771.60
2022-08-11T17:02:47.117Z,101771.60
2022-08-11T17:05:54.364Z,101776.60
2022-08-11T17:08:56.814Z,101771.80
2022-08-11T17:11:54.965Z,101775.20
2022-08-11T17:14:37.605Z,101769.80
2022-08-11T17:17:25.603Z,101773.40
2022-08-11T17:20:42.226Z,101779.00
2022-08-11T17:23:13.384Z,101779.00
2022-08-11T17:25:59.420Z,101773.80
2022-08-11T17:28:35.012Z,101776.60
2022-08-11T17:31:24.416Z,101772.60
2022-08-11T17:34:14.884Z,101776.40
2022-08-11T17:36:51.689Z,101769.60
2022-08-11T17:39:33.366Z,101762.20
2022-08-11T17:42:20.953Z,101762.20
2022-08-11T17:45:09.516Z,101758.40
2022-08-11T17:47:57.467Z,101761.20
2022-08-11T17:50:26.592Z,101768.00
2022-08-11T17:53:14.559Z,101770.40
2022-08-11T17:56:01.768Z,101775.20
2022-08-11T17:58:49.883Z,101783.40
2022-08-11T18:01:21.466Z,101783.60
2022-08-11T18:03:53.219Z,101782.60
2022-08-11T18:06:32.636Z,101785.80
2022-08-11T18:09:26.769Z,101790.60
2022-08-11T18:12:15.843Z,101792.20
2022-08-11T18:15:09.016Z,101799.20
2022-08-11T18:17:56.513Z,101794.20
2022-08-11T18:20:46.285Z,101794.40
2022-08-11T18:23:51.315Z,101799.60
2022-08-11T18:27:00.661Z,101796.60
2022-08-11T18:30:24.020Z,101802.00
2022-08-11T18:36:56.863Z,101803.80
2022-08-11T18:39:56.608Z,101806.00
2022-08-11T18:42:47.398Z,101806.60
2022-08-11T18:45:45.294Z,101810.60
2022-08-11T18:48:41.062Z,101812.20
2022-08-11T18:51:37.011Z,101809.40
2022-08-11T18:54:30.483Z,101810.20
2022-08-11T18:57:22.661Z,101813.40
2022-08-11T19:00:12.212Z,101812.00
2022-08-11T19:03:01.385Z,101813.40
2022-08-11T19:06:31.932Z,101816.40
2022-08-11T19:09:16.176Z,101818.40
2022-08-11T19:12:12.449Z,101819.00
2022-08-11T19:15:11.742Z,101822.20
2022-08-11T19:18:05.510Z,101821.80
2022-08-11T19:20:55.242Z,101820.20
2022-08-11T19:23:57.572Z,101822.00
2022-08-11T19:26:45.203Z,101817.80
2022-08-11T19:30:05.207Z,101817.60
2022-08-11T19:32:58.880Z,101813.80
2022-08-11T19:35:47.473Z,101817.60
2022-08-11T19:38:37.555Z,101815.80
2022-08-11T19:41:45.429Z,101809.00
2022-08-11T19:44:37.066Z,101807.40
2022-08-11T19:47:24.426Z,101804.20
2022-08-11T19:50:18.740Z,101807.60
2022-08-11T19:53:16.885Z,101802.60
2022-08-11T19:56:09.452Z,101801.80
2022-08-11T19:58:59.173Z,101795.20
2022-08-11T20:02:12.546Z,101793.60
2022-08-11T20:04:52.204Z,101795.80
2022-08-11T20:07:39.219Z,101797.40
2022-08-11T20:10:28.227Z,101801.80
2022-08-11T20:13:19.177Z,101804.80
2022-08-11T20:16:12.882Z,101804.80
2022-08-11T20:19:02.446Z,101808.60
2022-08-11T20:21:50.390Z,101808.00
2022-08-11T20:24:39.182Z,101810.80
2022-08-11T20:27:28.633Z,101817.80
2022-08-11T20:30:17.831Z,101813.00
2022-08-11T20:33:06.752Z,101807.60
2022-08-11T20:35:54.980Z,101807.20
2022-08-11T20:38:44.462Z,101816.00
2022-08-11T20:41:33.279Z,101814.80
2022-08-11T20:44:42.331Z,101817.80
2022-08-11T20:47:30.211Z,101822.20
2022-08-11T20:50:21.822Z,101829.80
2022-08-11T20:53:10.515Z,101829.60
2022-08-11T20:55:57.963Z,101831.40
2022-08-11T20:59:13.902Z,101835.60
2022-08-11T21:01:56.282Z,101837.40
2022-08-11T21:04:55.071Z,101840.80
2022-08-11T21:07:56.797Z,101841.60
2022-08-11T21:10:52.299Z,101841.80
2022-08-11T21:13:45.958Z,101843.60
2022-08-11T21:16:47.600Z,101841.20
2022-08-11T21:20:07.960Z,101843.00
2022-08-11T21:23:06.393Z,101842.40
2022-08-11T21:26:01.065Z,101838.40
2022-08-11T21:28:52.296Z,101836.60
2022-08-11T21:31:40.684Z,101839.00
2022-08-11T21:34:33.218Z,101839.00
2022-08-11T21:37:21.650Z,101842.20
2022-08-11T21:40:14.870Z,101837.80
2022-08-11T21:43:06.698Z,101844.60
2022-08-11T21:45:56.922Z,101842.00
2022-08-11T21:48:46.509Z,101839.40
2022-08-11T21:51:33.013Z,101837.00
2022-08-11T21:54:21.263Z,101837.60
2022-08-11T21:57:09.052Z,101828.20
2022-08-11T22:00:12.871Z,101827.20
2022-08-11T22:03:03.439Z,101829.00
2022-08-11T22:05:53.253Z,101831.60
2022-08-11T22:08:40.616Z,101836.00
2022-08-11T22:11:31.792Z,101834.00
2022-08-11T22:14:23.883Z,101837.40
2022-08-11T22:17:10.395Z,101837.80
2022-08-11T22:20:01.108Z,101831.60
2022-08-11T22:22:53.699Z,101835.60
2022-08-11T22:25:52.080Z,101835.60
2022-08-11T22:28:42.153Z,101832.80
2022-08-11T22:31:31.125Z,101834.60
2022-08-11T22:34:18.481Z,101824.40
2022-08-11T22:37:08.407Z,101824.20
2022-08-11T22:40:02.093Z,101825.20
2022-08-11T22:42:52.038Z,101820.80
2022-08-11T22:45:40.149Z,101816.80
2022-08-11T22:48:29.574Z,101816.80
2022-08-11T22:51:18.241Z,101816.80
2022-08-11T22:54:07.625Z,101818.40
2022-08-11T22:56:54.962Z,101817.00
2022-08-11T22:59:43.479Z,101813.40
2022-08-11T23:02:31.070Z,101808.80
2022-08-11T23:05:19.159Z,101804.60
2022-08-11T23:08:07.044Z,101806.40
2022-08-11T23:10:53.834Z,101807.20
2022-08-11T23:13:41.493Z,101806.80
2022-08-11T23:16:28.528Z,101804.20
2022-08-11T23:20:07.714Z,101805.40
2022-08-11T23:22:24.147Z,101801.40
2022-08-11T23:25:30.734Z,101802.40
2022-08-11T23:28:20.757Z,101800.40
2022-08-11T23:31:13.786Z,101799.40
2022-08-11T23:34:08.936Z,101793.20
2022-08-11T23:37:15.820Z,101792.20
2022-08-11T23:40:02.283Z,101790.60
2022-08-11T23:42:48.830Z,101791.80
2022-08-11T23:45:36.844Z,101790.80
2022-08-11T23:48:24.832Z,101790.00
2022-08-11T23:51:11.773Z,101790.40
2022-08-11T23:54:00.706Z,101789.80
2022-08-11T23:56:55.022Z,101793.20
2022-08-11T23:59:42.819Z,101793.60
